Terminal Aerodrome Forecast
Issued by NWS Des Moines, IA

Home | Current Version | Previous Version | Text Only | Print | Product List | Glossary On
Versions: 1 2 3 4 5 6 7 8 9 10 11 12 13 14 15 16 17 18 19 20 21 22 23 24 25 26 27 28 29 30
000
FTUS43 KDMX 241127
TAFDSM
TAF
KDSM 241127Z 2412/2512 VRB06KT P6SM SCT080 BKN100
     FM241600 20010KT P6SM BKN110
     FM241800 21010KT P6SM -SHRA VCTS OVC070CB
     FM242100 06006KT 4SM -SHRA OVC020
     FM250000 06006KT 2SM -SHRA OVC015
     FM250300 03008KT 2SM -SHRA OVC007=

USA.gov is the U.S. government's official web portal to all federal, state and local government web resources and services.